sensor_id;sensor_type;location;lat;lon;timestamp;temperature;humidity
8953;DHT22;4511;50.890;8.054;2023-04-25T00:01:39;7.30;99.90
8953;DHT22;4511;50.890;8.054;2023-04-25T00:04:06;7.30;99.90
8953;DHT22;4511;50.890;8.054;2023-04-25T00:06:35;7.30;99.90
8953;DHT22;4511;50.890;8.054;2023-04-25T00:09:02;7.30;99.90
8953;DHT22;4511;50.890;8.054;2023-04-25T00:11:32;7.30;99.90
8953;DHT22;4511;50.890;8.054;2023-04-25T00:13:59;7.30;99.90
8953;DHT22;4511;50.890;8.054;2023-04-25T00:16:27;7.40;99.90
8953;DHT22;4511;50.890;8.054;2023-04-25T00:18:55;7.30;99.90
8953;DHT22;4511;50.890;8.054;2023-04-25T00:21:22;7.40;99.90
8953;DHT22;4511;50.890;8.054;2023-04-25T00:23:52;7.30;99.90
8953;DHT22;4511;50.890;8.054;2023-04-25T00:26:19;7.30;99.90
8953;DHT22;4511;50.890;8.054;2023-04-25T00:28:47;7.30;99.90
8953;DHT22;4511;50.890;8.054;2023-04-25T00:31:14;7.30;99.90
8953;DHT22;4511;50.890;8.054;2023-04-25T00:33:40;7.30;99.90
8953;DHT22;4511;50.890;8.054;2023-04-25T00:36:08;7.30;99.90
8953;DHT22;4511;50.890;8.054;2023-04-25T00:38:35;7.30;99.90
8953;DHT22;4511;50.890;8.054;2023-04-25T00:41:05;7.20;99.90
8953;DHT22;4511;50.890;8.054;2023-04-25T00:43:32;7.20;99.90
8953;DHT22;4511;50.890;8.054;2023-04-25T00:46:00;7.30;99.90
8953;DHT22;4511;50.890;8.054;2023-04-25T00:48:27;7.30;99.90
8953;DHT22;4511;50.890;8.054;2023-04-25T00:50:55;7.20;99.90
8953;DHT22;4511;50.890;8.054;2023-04-25T00:53:23;7.30;99.90
8953;DHT22;4511;50.890;8.054;2023-04-25T00:55:52;7.20;99.90
8953;DHT22;4511;50.890;8.054;2023-04-25T00:58:21;7.10;99.90
8953;DHT22;4511;50.890;8.054;2023-04-25T01:00:50;6.90;99.90
8953;DHT22;4511;50.890;8.054;2023-04-25T01:03:17;7.00;99.90
8953;DHT22;4511;50.890;8.054;2023-04-25T01:05:45;7.00;99.90
8953;DHT22;4511;50.890;8.054;2023-04-25T01:08:12;7.00;99.90
8953;DHT22;4511;50.890;8.054;2023-04-25T01:10:39;6.90;99.90
8953;DHT22;4511;50.890;8.054;2023-04-25T01:13:06;6.90;99.90
8953;DHT22;4511;50.890;8.054;2023-04-25T01:15:35;6.90;99.90
8953;DHT22;4511;50.890;8.054;2023-04-25T01:18:02;6.80;99.90
8953;DHT22;4511;50.890;8.054;2023-04-25T01:20:32;6.70;99.90
8953;DHT22;4511;50.890;8.054;2023-04-25T01:23:00;6.60;99.90
8953;DHT22;4511;50.890;8.054;2023-04-25T01:25:28;6.50;99.90
8953;DHT22;4511;50.890;8.054;2023-04-25T01:27:56;6.50;99.90
8953;DHT22;4511;50.890;8.054;2023-04-25T01:30:23;6.40;99.90
8953;DHT22;4511;50.890;8.054;2023-04-25T01:32:51;6.30;99.90
8953;DHT22;4511;50.890;8.054;2023-04-25T01:35:18;6.20;99.90
8953;DHT22;4511;50.890;8.054;2023-04-25T01:37:45;6.20;99.90
8953;DHT22;4511;50.890;8.054;2023-04-25T01:40:13;6.20;99.90
8953;DHT22;4511;50.890;8.054;2023-04-25T01:42:43;6.10;99.90
8953;DHT22;4511;50.890;8.054;2023-04-25T01:45:10;6.10;99.90
8953;DHT22;4511;50.890;8.054;2023-04-25T01:47:37;6.20;99.90
8953;DHT22;4511;50.890;8.054;2023-04-25T01:50:06;6.40;99.90
8953;DHT22;4511;50.890;8.054;2023-04-25T01:52:33;6.40;99.90
8953;DHT22;4511;50.890;8.054;2023-04-25T01:55:01;6.50;99.90
8953;DHT22;4511;50.890;8.054;2023-04-25T01:57:29;6.40;99.90
8953;DHT22;4511;50.890;8.054;2023-04-25T01:59:58;6.50;99.90
8953;DHT22;4511;50.890;8.054;2023-04-25T02:02:26;6.60;99.90
8953;DHT22;4511;50.890;8.054;2023-04-25T02:04:52;6.60;99.90
8953;DHT22;4511;50.890;8.054;2023-04-25T02:07:20;6.60;99.90
8953;DHT22;4511;50.890;8.054;2023-04-25T02:09:47;6.60;99.90
8953;DHT22;4511;50.890;8.054;2023-04-25T02:12:14;6.60;99.90
8953;DHT22;4511;50.890;8.054;2023-04-25T02:14:42;6.60;99.90
8953;DHT22;4511;50.890;8.054;2023-04-25T02:17:08;6.70;99.90
8953;DHT22;4511;50.890;8.054;2023-04-25T02:19:35;6.80;99.90
8953;DHT22;4511;50.890;8.054;2023-04-25T02:22:02;6.80;99.90
8953;DHT22;4511;50.890;8.054;2023-04-25T02:24:29;6.90;99.90
8953;DHT22;4511;50.890;8.054;2023-04-25T02:26:57;6.90;99.90
8953;DHT22;4511;50.890;8.054;2023-04-25T02:29:24;6.90;99.90
8953;DHT22;4511;50.890;8.054;2023-04-25T02:31:52;7.00;99.90
8953;DHT22;4511;50.890;8.054;2023-04-25T02:34:19;6.90;99.90
8953;DHT22;4511;50.890;8.054;2023-04-25T02:36:45;7.00;99.90
8953;DHT22;4511;50.890;8.054;2023-04-25T02:39:12;7.00;99.90
8953;DHT22;4511;50.890;8.054;2023-04-25T02:41:39;7.00;99.90
8953;DHT22;4511;50.890;8.054;2023-04-25T02:44:06;7.00;99.90
8953;DHT22;4511;50.890;8.054;2023-04-25T02:46:32;7.00;99.90
8953;DHT22;4511;50.890;8.054;2023-04-25T02:49:00;7.00;99.90
8953;DHT22;4511;50.890;8.054;2023-04-25T02:51:27;7.10;99.90
8953;DHT22;4511;50.890;8.054;2023-04-25T02:53:54;7.10;99.90
8953;DHT22;4511;50.890;8.054;2023-04-25T02:56:21;7.00;99.90
8953;DHT22;4511;50.890;8.054;2023-04-25T02:58:47;7.00;99.90
8953;DHT22;4511;50.890;8.054;2023-04-25T03:01:14;7.00;99.90
8953;DHT22;4511;50.890;8.054;2023-04-25T03:03:41;7.00;99.90
8953;DHT22;4511;50.890;8.054;2023-04-25T03:06:09;6.90;99.90
8953;DHT22;4511;50.890;8.054;2023-04-25T03:08:36;6.90;99.90
8953;DHT22;4511;50.890;8.054;2023-04-25T03:11:03;6.90;99.90
8953;DHT22;4511;50.890;8.054;2023-04-25T03:13:30;6.90;99.90
8953;DHT22;4511;50.890;8.054;2023-04-25T03:15:56;6.90;99.90
8953;DHT22;4511;50.890;8.054;2023-04-25T03:18:23;6.90;99.90
8953;DHT22;4511;50.890;8.054;2023-04-25T03:20:50;6.90;99.90
8953;DHT22;4511;50.890;8.054;2023-04-25T03:23:18;6.90;99.90
8953;DHT22;4511;50.890;8.054;2023-04-25T03:25:45;6.70;99.90
8953;DHT22;4511;50.890;8.054;2023-04-25T03:28:11;6.70;99.90
8953;DHT22;4511;50.890;8.054;2023-04-25T03:30:38;6.70;99.90
8953;DHT22;4511;50.890;8.054;2023-04-25T03:33:05;6.80;99.90
8953;DHT22;4511;50.890;8.054;2023-04-25T03:35:32;6.80;99.90
8953;DHT22;4511;50.890;8.054;2023-04-25T03:37:58;6.80;99.90
8953;DHT22;4511;50.890;8.054;2023-04-25T03:40:26;6.80;99.90
8953;DHT22;4511;50.890;8.054;2023-04-25T03:42:53;6.80;99.90
8953;DHT22;4511;50.890;8.054;2023-04-25T03:45:20;6.80;99.90
8953;DHT22;4511;50.890;8.054;2023-04-25T03:47:47;6.70;99.90
8953;DHT22;4511;50.890;8.054;2023-04-25T03:50:13;6.70;99.90
8953;DHT22;4511;50.890;8.054;2023-04-25T03:52:40;6.70;99.90
8953;DHT22;4511;50.890;8.054;2023-04-25T03:55:08;6.60;99.90
8953;DHT22;4511;50.890;8.054;2023-04-25T03:57:36;6.70;99.90
8953;DHT22;4511;50.890;8.054;2023-04-25T04:00:04;6.60;99.90
8953;DHT22;4511;50.890;8.054;2023-04-25T04:02:32;6.60;99.90
8953;DHT22;4511;50.890;8.054;2023-04-25T04:05:00;6.60;99.90
8953;DHT22;4511;50.890;8.054;2023-04-25T04:07:27;6.60;99.90
8953;DHT22;4511;50.890;8.054;2023-04-25T04:09:53;6.50;99.90
8953;DHT22;4511;50.890;8.054;2023-04-25T04:12:20;6.50;99.90
8953;DHT22;4511;50.890;8.054;2023-04-25T04:14:48;6.60;99.90
8953;DHT22;4511;50.890;8.054;2023-04-25T04:17:15;6.70;99.90
8953;DHT22;4511;50.890;8.054;2023-04-25T04:19:42;6.70;99.90
8953;DHT22;4511;50.890;8.054;2023-04-25T04:22:08;6.70;99.90
8953;DHT22;4511;50.890;8.054;2023-04-25T04:24:35;6.40;99.90
8953;DHT22;4511;50.890;8.054;2023-04-25T04:27:02;6.40;99.90
8953;DHT22;4511;50.890;8.054;2023-04-25T04:29:29;6.50;99.90
8953;DHT22;4511;50.890;8.054;2023-04-25T04:31:57;6.60;99.90
8953;DHT22;4511;50.890;8.054;2023-04-25T04:34:26;6.60;99.90
8953;DHT22;4511;50.890;8.054;2023-04-25T04:36:53;6.70;99.90
8953;DHT22;4511;50.890;8.054;2023-04-25T04:39:20;6.70;99.90
8953;DHT22;4511;50.890;8.054;2023-04-25T04:41:47;6.70;99.90
8953;DHT22;4511;50.890;8.054;2023-04-25T04:44:14;6.70;99.90
8953;DHT22;4511;50.890;8.054;2023-04-25T04:46:41;6.70;99.90
8953;DHT22;4511;50.890;8.054;2023-04-25T04:49:10;6.70;99.90
8953;DHT22;4511;50.890;8.054;2023-04-25T04:51:36;6.70;99.90
8953;DHT22;4511;50.890;8.054;2023-04-25T04:54:04;6.70;99.90
8953;DHT22;4511;50.890;8.054;2023-04-25T04:56:31;6.60;99.90
8953;DHT22;4511;50.890;8.054;2023-04-25T04:58:58;6.70;99.90
8953;DHT22;4511;50.890;8.054;2023-04-25T05:01:27;6.70;99.90
8953;DHT22;4511;50.890;8.054;2023-04-25T05:03:55;7.10;99.90
8953;DHT22;4511;50.890;8.054;2023-04-25T05:06:27;7.00;99.90
8953;DHT22;4511;50.890;8.054;2023-04-25T05:08:54;7.00;99.90
8953;DHT22;4511;50.890;8.054;2023-04-25T05:11:21;7.00;99.90
8953;DHT22;4511;50.890;8.054;2023-04-25T05:13:49;6.90;99.90
8953;DHT22;4511;50.890;8.054;2023-04-25T05:16:15;6.90;99.90
8953;DHT22;4511;50.890;8.054;2023-04-25T05:18:42;6.80;99.90
8953;DHT22;4511;50.890;8.054;2023-04-25T05:21:09;6.90;99.90
8953;DHT22;4511;50.890;8.054;2023-04-25T05:23:37;6.80;99.90
8953;DHT22;4511;50.890;8.054;2023-04-25T05:26:04;6.80;99.90
8953;DHT22;4511;50.890;8.054;2023-04-25T05:28:39;6.90;99.90
8953;DHT22;4511;50.890;8.054;2023-04-25T05:31:05;6.90;99.90
8953;DHT22;4511;50.890;8.054;2023-04-25T05:33:32;7.00;99.90
8953;DHT22;4511;50.890;8.054;2023-04-25T05:35:59;7.10;99.90
8953;DHT22;4511;50.890;8.054;2023-04-25T05:38:26;7.10;99.90
8953;DHT22;4511;50.890;8.054;2023-04-25T05:40:54;7.10;99.90
8953;DHT22;4511;50.890;8.054;2023-04-25T05:43:20;7.10;99.90
8953;DHT22;4511;50.890;8.054;2023-04-25T05:45:47;7.10;99.90
8953;DHT22;4511;50.890;8.054;2023-04-25T05:48:14;7.10;99.90
8953;DHT22;4511;50.890;8.054;2023-04-25T05:50:41;7.10;99.90
8953;DHT22;4511;50.890;8.054;2023-04-25T05:53:08;7.20;99.90
8953;DHT22;4511;50.890;8.054;2023-04-25T05:55:35;7.30;99.90
8953;DHT22;4511;50.890;8.054;2023-04-25T05:58:05;7.40;99.90
8953;DHT22;4511;50.890;8.054;2023-04-25T06:00:32;7.40;99.90
8953;DHT22;4511;50.890;8.054;2023-04-25T06:02:59;7.50;99.90
8953;DHT22;4511;50.890;8.054;2023-04-25T06:05:26;7.40;99.90
8953;DHT22;4511;50.890;8.054;2023-04-25T06:07:53;7.40;99.90
8953;DHT22;4511;50.890;8.054;2023-04-25T06:10:20;7.30;99.90
8953;DHT22;4511;50.890;8.054;2023-04-25T06:12:48;7.20;99.90
8953;DHT22;4511;50.890;8.054;2023-04-25T06:15:16;7.40;99.90
8953;DHT22;4511;50.890;8.054;2023-04-25T06:17:43;7.30;99.90
8953;DHT22;4511;50.890;8.054;2023-04-25T06:20:10;7.40;99.90
8953;DHT22;4511;50.890;8.054;2023-04-25T06:22:37;7.30;99.90
8953;DHT22;4511;50.890;8.054;2023-04-25T06:25:05;7.30;99.90
8953;DHT22;4511;50.890;8.054;2023-04-25T06:27:32;7.20;99.90
8953;DHT22;4511;50.890;8.054;2023-04-25T06:29:59;7.10;99.90
8953;DHT22;4511;50.890;8.054;2023-04-25T06:32:27;6.90;99.90
8953;DHT22;4511;50.890;8.054;2023-04-25T06:34:55;7.00;99.90
8953;DHT22;4511;50.890;8.054;2023-04-25T06:37:22;7.00;99.90
8953;DHT22;4511;50.890;8.054;2023-04-25T06:39:48;7.00;99.90
8953;DHT22;4511;50.890;8.054;2023-04-25T06:42:15;7.00;99.90
8953;DHT22;4511;50.890;8.054;2023-04-25T06:44:42;6.90;99.90
8953;DHT22;4511;50.890;8.054;2023-04-25T06:47:09;7.00;99.90
8953;DHT22;4511;50.890;8.054;2023-04-25T06:49:37;7.10;99.90
8953;DHT22;4511;50.890;8.054;2023-04-25T06:52:04;7.30;99.90
8953;DHT22;4511;50.890;8.054;2023-04-25T06:54:30;7.40;99.90
8953;DHT22;4511;50.890;8.054;2023-04-25T06:56:57;7.50;99.90
8953;DHT22;4511;50.890;8.054;2023-04-25T06:59:26;7.60;99.90
8953;DHT22;4511;50.890;8.054;2023-04-25T07:01:53;7.70;99.90
8953;DHT22;4511;50.890;8.054;2023-04-25T07:04:19;7.70;99.90
8953;DHT22;4511;50.890;8.054;2023-04-25T07:06:48;7.60;99.90
8953;DHT22;4511;50.890;8.054;2023-04-25T07:09:15;7.50;99.90
8953;DHT22;4511;50.890;8.054;2023-04-25T07:11:41;7.30;99.90
8953;DHT22;4511;50.890;8.054;2023-04-25T07:14:08;7.30;99.90
8953;DHT22;4511;50.890;8.054;2023-04-25T07:16:35;7.20;99.90
8953;DHT22;4511;50.890;8.054;2023-04-25T07:19:02;7.10;99.90
8953;DHT22;4511;50.890;8.054;2023-04-25T07:21:28;7.00;99.90
8953;DHT22;4511;50.890;8.054;2023-04-25T07:23:57;6.90;99.90
8953;DHT22;4511;50.890;8.054;2023-04-25T07:26:24;7.00;99.90
8953;DHT22;4511;50.890;8.054;2023-04-25T07:28:51;7.20;99.90
8953;DHT22;4511;50.890;8.054;2023-04-25T07:31:17;7.10;99.90
8953;DHT22;4511;50.890;8.054;2023-04-25T07:33:44;7.30;99.90
8953;DHT22;4511;50.890;8.054;2023-04-25T07:36:11;7.40;99.90
8953;DHT22;4511;50.890;8.054;2023-04-25T07:38:38;7.40;99.90
8953;DHT22;4511;50.890;8.054;2023-04-25T07:41:06;7.60;99.90
8953;DHT22;4511;50.890;8.054;2023-04-25T07:43:33;7.60;99.90
8953;DHT22;4511;50.890;8.054;2023-04-25T07:46:00;7.70;99.90
8953;DHT22;4511;50.890;8.054;2023-04-25T07:48:28;7.60;99.90
8953;DHT22;4511;50.890;8.054;2023-04-25T07:50:54;7.40;99.90
8953;DHT22;4511;50.890;8.054;2023-04-25T07:53:21;7.50;99.90
8953;DHT22;4511;50.890;8.054;2023-04-25T07:55:48;7.70;99.90
8953;DHT22;4511;50.890;8.054;2023-04-25T07:58:16;7.80;99.90
8953;DHT22;4511;50.890;8.054;2023-04-25T08:00:46;7.90;99.90
8953;DHT22;4511;50.890;8.054;2023-04-25T08:03:13;8.10;99.90
8953;DHT22;4511;50.890;8.054;2023-04-25T08:05:40;8.10;99.90
8953;DHT22;4511;50.890;8.054;2023-04-25T08:08:07;8.10;99.90
8953;DHT22;4511;50.890;8.054;2023-04-25T08:10:34;7.90;99.90
8953;DHT22;4511;50.890;8.054;2023-04-25T08:13:00;7.90;99.90
8953;DHT22;4511;50.890;8.054;2023-04-25T08:15:29;8.10;99.90
8953;DHT22;4511;50.890;8.054;2023-04-25T08:17:55;8.30;99.90
8953;DHT22;4511;50.890;8.054;2023-04-25T08:20:22;8.20;99.90
8953;DHT22;4511;50.890;8.054;2023-04-25T08:22:50;8.30;99.90
8953;DHT22;4511;50.890;8.054;2023-04-25T08:25:17;8.50;99.90
8953;DHT22;4511;50.890;8.054;2023-04-25T08:27:43;8.60;99.90
8953;DHT22;4511;50.890;8.054;2023-04-25T08:30:11;8.60;99.90
8953;DHT22;4511;50.890;8.054;2023-04-25T08:32:39;8.70;99.90
8953;DHT22;4511;50.890;8.054;2023-04-25T08:35:06;8.90;99.90
8953;DHT22;4511;50.890;8.054;2023-04-25T08:37:33;9.00;99.90
8953;DHT22;4511;50.890;8.054;2023-04-25T08:40:01;9.20;99.90
8953;DHT22;4511;50.890;8.054;2023-04-25T08:42:33;9.20;99.90
8953;DHT22;4511;50.890;8.054;2023-04-25T08:45:01;9.10;99.90
8953;DHT22;4511;50.890;8.054;2023-04-25T08:47:30;9.10;99.90
8953;DHT22;4511;50.890;8.054;2023-04-25T08:50:02;9.00;99.90
8953;DHT22;4511;50.890;8.054;2023-04-25T08:52:39;8.80;99.90
8953;DHT22;4511;50.890;8.054;2023-04-25T08:55:09;8.80;99.90
8953;DHT22;4511;50.890;8.054;2023-04-25T08:57:37;8.80;99.90
8953;DHT22;4511;50.890;8.054;2023-04-25T09:00:04;8.90;99.90
8953;DHT22;4511;50.890;8.054;2023-04-25T09:02:33;8.50;99.90
8953;DHT22;4511;50.890;8.054;2023-04-25T09:05:02;8.80;99.90
8953;DHT22;4511;50.890;8.054;2023-04-25T09:07:30;9.00;99.90
8953;DHT22;4511;50.890;8.054;2023-04-25T09:09:57;9.00;99.90
8953;DHT22;4511;50.890;8.054;2023-04-25T09:12:26;9.30;99.90
8953;DHT22;4511;50.890;8.054;2023-04-25T09:15:05;9.50;99.90
8953;DHT22;4511;50.890;8.054;2023-04-25T09:17:32;9.60;99.90
8953;DHT22;4511;50.890;8.054;2023-04-25T09:20:08;9.50;99.90
8953;DHT22;4511;50.890;8.054;2023-04-25T09:22:35;9.60;99.90
8953;DHT22;4511;50.890;8.054;2023-04-25T09:25:03;9.70;99.90
8953;DHT22;4511;50.890;8.054;2023-04-25T09:27:32;9.60;99.90
8953;DHT22;4511;50.890;8.054;2023-04-25T09:29:59;9.70;99.90
8953;DHT22;4511;50.890;8.054;2023-04-25T09:32:26;9.90;99.90
8953;DHT22;4511;50.890;8.054;2023-04-25T09:34:54;10.00;99.90
8953;DHT22;4511;50.890;8.054;2023-04-25T09:37:24;9.90;99.90
8953;DHT22;4511;50.890;8.054;2023-04-25T09:39:53;9.90;99.90
8953;DHT22;4511;50.890;8.054;2023-04-25T09:42:22;9.70;99.90
8953;DHT22;4511;50.890;8.054;2023-04-25T09:44:52;9.50;99.90
8953;DHT22;4511;50.890;8.054;2023-04-25T09:47:20;9.60;99.90
8953;DHT22;4511;50.890;8.054;2023-04-25T09:49:49;9.30;99.90
8953;DHT22;4511;50.890;8.054;2023-04-25T09:52:18;9.20;99.90
8953;DHT22;4511;50.890;8.054;2023-04-25T09:54:47;9.10;99.90
8953;DHT22;4511;50.890;8.054;2023-04-25T09:57:15;9.20;99.90
8953;DHT22;4511;50.890;8.054;2023-04-25T09:59:46;9.20;99.90
8953;DHT22;4511;50.890;8.054;2023-04-25T10:02:15;9.10;99.90
8953;DHT22;4511;50.890;8.054;2023-04-25T10:04:45;9.00;99.90
8953;DHT22;4511;50.890;8.054;2023-04-25T10:07:14;9.10;99.90
8953;DHT22;4511;50.890;8.054;2023-04-25T10:09:41;9.10;99.90
8953;DHT22;4511;50.890;8.054;2023-04-25T10:12:12;9.30;99.90
8953;DHT22;4511;50.890;8.054;2023-04-25T10:14:39;9.40;99.90
8953;DHT22;4511;50.890;8.054;2023-04-25T10:17:07;9.40;99.90
8953;DHT22;4511;50.890;8.054;2023-04-25T10:19:37;9.50;99.90
8953;DHT22;4511;50.890;8.054;2023-04-25T10:22:07;9.60;99.90
8953;DHT22;4511;50.890;8.054;2023-04-25T10:24:35;10.00;99.90
8953;DHT22;4511;50.890;8.054;2023-04-25T10:27:02;10.00;99.90
8953;DHT22;4511;50.890;8.054;2023-04-25T10:29:30;10.00;99.90
8953;DHT22;4511;50.890;8.054;2023-04-25T10:31:57;10.10;99.90
8953;DHT22;4511;50.890;8.054;2023-04-25T10:34:37;10.10;99.90
8953;DHT22;4511;50.890;8.054;2023-04-25T10:37:05;10.20;99.90
8953;DHT22;4511;50.890;8.054;2023-04-25T10:39:34;10.70;99.90
8953;DHT22;4511;50.890;8.054;2023-04-25T10:42:02;10.60;99.90
8953;DHT22;4511;50.890;8.054;2023-04-25T10:44:32;10.90;99.90
8953;DHT22;4511;50.890;8.054;2023-04-25T10:47:01;10.80;99.90
8953;DHT22;4511;50.890;8.054;2023-04-25T10:49:32;11.00;99.90
8953;DHT22;4511;50.890;8.054;2023-04-25T10:52:17;10.80;99.90
8953;DHT22;4511;50.890;8.054;2023-04-25T10:54:48;10.60;99.90
8953;DHT22;4511;50.890;8.054;2023-04-25T10:57:36;10.60;99.90
8953;DHT22;4511;50.890;8.054;2023-04-25T11:00:10;10.40;99.90
8953;DHT22;4511;50.890;8.054;2023-04-25T11:02:40;10.40;99.90
8953;DHT22;4511;50.890;8.054;2023-04-25T11:05:08;10.10;99.90
8953;DHT22;4511;50.890;8.054;2023-04-25T11:07:38;10.00;99.90
8953;DHT22;4511;50.890;8.054;2023-04-25T11:10:09;9.90;99.90
8953;DHT22;4511;50.890;8.054;2023-04-25T11:12:35;9.90;99.90
8953;DHT22;4511;50.890;8.054;2023-04-25T11:15:03;9.90;99.90
8953;DHT22;4511;50.890;8.054;2023-04-25T11:17:32;9.90;99.90
8953;DHT22;4511;50.890;8.054;2023-04-25T11:19:59;9.90;99.90
8953;DHT22;4511;50.890;8.054;2023-04-25T11:22:27;10.00;99.90
8953;DHT22;4511;50.890;8.054;2023-04-25T11:24:54;10.20;99.90
8953;DHT22;4511;50.890;8.054;2023-04-25T11:27:20;10.30;99.90
8953;DHT22;4511;50.890;8.054;2023-04-25T11:29:50;10.20;99.90
8953;DHT22;4511;50.890;8.054;2023-04-25T11:32:17;10.20;99.90
8953;DHT22;4511;50.890;8.054;2023-04-25T11:34:46;10.20;99.90
8953;DHT22;4511;50.890;8.054;2023-04-25T11:37:14;10.10;99.90
8953;DHT22;4511;50.890;8.054;2023-04-25T11:39:44;10.00;99.90
8953;DHT22;4511;50.890;8.054;2023-04-25T11:42:12;10.10;99.90
8953;DHT22;4511;50.890;8.054;2023-04-25T11:44:39;9.90;99.90
8953;DHT22;4511;50.890;8.054;2023-04-25T11:47:06;9.80;99.90
8953;DHT22;4511;50.890;8.054;2023-04-25T11:49:33;9.60;99.90
8953;DHT22;4511;50.890;8.054;2023-04-25T11:52:02;9.60;99.90
8953;DHT22;4511;50.890;8.054;2023-04-25T11:54:35;9.60;99.90
8953;DHT22;4511;50.890;8.054;2023-04-25T11:57:02;9.50;99.90
8953;DHT22;4511;50.890;8.054;2023-04-25T11:59:29;9.50;99.90
8953;DHT22;4511;50.890;8.054;2023-04-25T12:01:57;9.60;99.90
8953;DHT22;4511;50.890;8.054;2023-04-25T12:04:25;9.80;99.90
8953;DHT22;4511;50.890;8.054;2023-04-25T12:06:53;10.00;99.90
8953;DHT22;4511;50.890;8.054;2023-04-25T12:09:28;10.40;99.90
8953;DHT22;4511;50.890;8.054;2023-04-25T12:11:56;10.70;99.90
8953;DHT22;4511;50.890;8.054;2023-04-25T12:14:25;11.30;99.90
8953;DHT22;4511;50.890;8.054;2023-04-25T12:16:54;11.90;99.90
8953;DHT22;4511;50.890;8.054;2023-04-25T12:19:21;12.50;98.30
8953;DHT22;4511;50.890;8.054;2023-04-25T12:21:49;12.90;96.90
8953;DHT22;4511;50.890;8.054;2023-04-25T12:24:17;12.50;93.80
8953;DHT22;4511;50.890;8.054;2023-04-25T12:26:50;12.80;94.80
8953;DHT22;4511;50.890;8.054;2023-04-25T12:29:19;13.40;95.30
8953;DHT22;4511;50.890;8.054;2023-04-25T12:31:46;14.00;92.60
8953;DHT22;4511;50.890;8.054;2023-04-25T12:34:13;13.70;90.40
8953;DHT22;4511;50.890;8.054;2023-04-25T12:36:41;12.90;90.70
8953;DHT22;4511;50.890;8.054;2023-04-25T12:39:07;12.50;91.30
8953;DHT22;4511;50.890;8.054;2023-04-25T12:41:35;12.10;91.40
8953;DHT22;4511;50.890;8.054;2023-04-25T12:44:04;11.80;91.40
8953;DHT22;4511;50.890;8.054;2023-04-25T12:46:31;11.50;91.40
8953;DHT22;4511;50.890;8.054;2023-04-25T12:48:57;11.50;92.40
8953;DHT22;4511;50.890;8.054;2023-04-25T12:51:25;11.50;92.10
8953;DHT22;4511;50.890;8.054;2023-04-25T12:53:53;11.40;92.50
8953;DHT22;4511;50.890;8.054;2023-04-25T12:56:20;11.70;92.80
8953;DHT22;4511;50.890;8.054;2023-04-25T12:58:46;11.60;90.40
8953;DHT22;4511;50.890;8.054;2023-04-25T13:01:15;11.80;90.90
8953;DHT22;4511;50.890;8.054;2023-04-25T13:03:42;11.80;89.50
8953;DHT22;4511;50.890;8.054;2023-04-25T13:06:09;12.00;90.70
8953;DHT22;4511;50.890;8.054;2023-04-25T13:08:36;11.80;86.50
8953;DHT22;4511;50.890;8.054;2023-04-25T13:11:03;11.50;85.60
8953;DHT22;4511;50.890;8.054;2023-04-25T13:13:30;12.30;85.70
8953;DHT22;4511;50.890;8.054;2023-04-25T13:15:59;13.00;81.60
8953;DHT22;4511;50.890;8.054;2023-04-25T13:18:28;13.60;87.40
8953;DHT22;4511;50.890;8.054;2023-04-25T13:20:55;13.60;80.20
8953;DHT22;4511;50.890;8.054;2023-04-25T13:23:22;13.20;81.40
8953;DHT22;4511;50.890;8.054;2023-04-25T13:25:50;13.10;84.10
8953;DHT22;4511;50.890;8.054;2023-04-25T13:28:17;12.70;85.10
8953;DHT22;4511;50.890;8.054;2023-04-25T13:30:44;12.30;83.90
8953;DHT22;4511;50.890;8.054;2023-04-25T13:33:11;11.70;83.80
8953;DHT22;4511;50.890;8.054;2023-04-25T13:35:39;11.60;85.10
8953;DHT22;4511;50.890;8.054;2023-04-25T13:38:05;11.50;81.90
8953;DHT22;4511;50.890;8.054;2023-04-25T13:40:32;11.30;85.30
8953;DHT22;4511;50.890;8.054;2023-04-25T13:42:59;11.20;85.70
8953;DHT22;4511;50.890;8.054;2023-04-25T13:45:26;11.30;88.00
8953;DHT22;4511;50.890;8.054;2023-04-25T13:47:52;11.30;87.40
8953;DHT22;4511;50.890;8.054;2023-04-25T13:50:20;11.10;87.60
8953;DHT22;4511;50.890;8.054;2023-04-25T13:52:49;11.20;89.10
8953;DHT22;4511;50.890;8.054;2023-04-25T13:55:15;11.30;90.20
8953;DHT22;4511;50.890;8.054;2023-04-25T13:57:42;11.50;90.70
8953;DHT22;4511;50.890;8.054;2023-04-25T14:00:10;12.00;90.30
8953;DHT22;4511;50.890;8.054;2023-04-25T14:02:37;11.90;89.50
8953;DHT22;4511;50.890;8.054;2023-04-25T14:05:05;11.90;90.70
8953;DHT22;4511;50.890;8.054;2023-04-25T14:07:33;11.80;91.20
8953;DHT22;4511;50.890;8.054;2023-04-25T14:10:03;11.80;91.10
8953;DHT22;4511;50.890;8.054;2023-04-25T14:12:31;12.60;98.10
8953;DHT22;4511;50.890;8.054;2023-04-25T14:14:58;12.60;90.60
8953;DHT22;4511;50.890;8.054;2023-04-25T14:17:25;12.60;90.80
8953;DHT22;4511;50.890;8.054;2023-04-25T14:19:52;12.60;90.10
8953;DHT22;4511;50.890;8.054;2023-04-25T14:22:18;12.50;89.50
8953;DHT22;4511;50.890;8.054;2023-04-25T14:24:45;12.20;87.70
8953;DHT22;4511;50.890;8.054;2023-04-25T14:27:13;13.00;90.20
8953;DHT22;4511;50.890;8.054;2023-04-25T14:29:40;13.80;88.70
8953;DHT22;4511;50.890;8.054;2023-04-25T14:32:07;13.90;87.00
8953;DHT22;4511;50.890;8.054;2023-04-25T14:34:35;13.30;83.90
8953;DHT22;4511;50.890;8.054;2023-04-25T14:37:02;12.60;84.20
8953;DHT22;4511;50.890;8.054;2023-04-25T14:39:29;12.20;87.40
8953;DHT22;4511;50.890;8.054;2023-04-25T14:41:56;12.20;88.80
8953;DHT22;4511;50.890;8.054;2023-04-25T14:44:24;12.20;90.40
8953;DHT22;4511;50.890;8.054;2023-04-25T14:46:51;12.20;88.90
8953;DHT22;4511;50.890;8.054;2023-04-25T14:49:18;12.00;88.40
8953;DHT22;4511;50.890;8.054;2023-04-25T14:51:45;11.80;88.40
8953;DHT22;4511;50.890;8.054;2023-04-25T14:54:12;11.70;89.70
8953;DHT22;4511;50.890;8.054;2023-04-25T14:56:38;11.80;90.40
8953;DHT22;4511;50.890;8.054;2023-04-25T14:59:05;11.60;90.80
8953;DHT22;4511;50.890;8.054;2023-04-25T15:01:33;11.10;91.20
8953;DHT22;4511;50.890;8.054;2023-04-25T15:04:00;11.00;93.70
8953;DHT22;4511;50.890;8.054;2023-04-25T15:06:27;11.00;96.40
8953;DHT22;4511;50.890;8.054;2023-04-25T15:08:55;11.00;97.50
8953;DHT22;4511;50.890;8.054;2023-04-25T15:11:22;10.90;96.10
8953;DHT22;4511;50.890;8.054;2023-04-25T15:13:49;11.20;98.70
8953;DHT22;4511;50.890;8.054;2023-04-25T15:16:16;11.10;96.80
8953;DHT22;4511;50.890;8.054;2023-04-25T15:18:44;11.00;94.40
8953;DHT22;4511;50.890;8.054;2023-04-25T15:21:11;11.20;93.00
8953;DHT22;4511;50.890;8.054;2023-04-25T15:23:37;11.40;93.10
8953;DHT22;4511;50.890;8.054;2023-04-25T15:26:04;11.80;94.20
8953;DHT22;4511;50.890;8.054;2023-04-25T15:28:31;12.10;92.30
8953;DHT22;4511;50.890;8.054;2023-04-25T15:30:59;12.10;91.10
8953;DHT22;4511;50.890;8.054;2023-04-25T15:33:26;13.10;93.90
8953;DHT22;4511;50.890;8.054;2023-04-25T15:35:54;14.20;88.80
8953;DHT22;4511;50.890;8.054;2023-04-25T15:38:23;13.20;89.60
8953;DHT22;4511;50.890;8.054;2023-04-25T15:40:49;13.50;90.80
8953;DHT22;4511;50.890;8.054;2023-04-25T15:43:18;14.90;87.50
8953;DHT22;4511;50.890;8.054;2023-04-25T15:45:45;15.80;85.40
8953;DHT22;4511;50.890;8.054;2023-04-25T15:48:11;15.20;81.30
8953;DHT22;4511;50.890;8.054;2023-04-25T15:50:38;15.10;83.50
8953;DHT22;4511;50.890;8.054;2023-04-25T15:53:06;15.60;84.20
8953;DHT22;4511;50.890;8.054;2023-04-25T15:55:33;15.30;82.40
8953;DHT22;4511;50.890;8.054;2023-04-25T15:58:00;15.70;78.90
8953;DHT22;4511;50.890;8.054;2023-04-25T16:00:27;15.30;78.00
8953;DHT22;4511;50.890;8.054;2023-04-25T16:02:55;13.90;86.30
8953;DHT22;4511;50.890;8.054;2023-04-25T16:05:22;13.20;89.80
8953;DHT22;4511;50.890;8.054;2023-04-25T16:07:49;13.00;91.10
8953;DHT22;4511;50.890;8.054;2023-04-25T16:10:19;12.90;91.50
8953;DHT22;4511;50.890;8.054;2023-04-25T16:12:47;12.60;92.40
8953;DHT22;4511;50.890;8.054;2023-04-25T16:15:14;12.30;92.30